createdAt,value
2022-08-07T00:01:43.951Z,1.00
2022-08-07T00:04:09.544Z,0.77
2022-08-07T00:06:51.702Z,1.02
2022-08-07T00:09:35.529Z,0.93
2022-08-07T00:12:10.840Z,0.90
2022-08-07T00:14:46.030Z,1.52
2022-08-07T00:17:23.486Z,0.77
2022-08-07T00:20:03.285Z,0.90
2022-08-07T00:22:40.270Z,0.70
2022-08-07T00:25:17.400Z,1.67
2022-08-07T00:27:56.588Z,0.70
2022-08-07T00:30:30.840Z,0.70
2022-08-07T00:33:08.566Z,0.93
2022-08-07T00:35:49.436Z,0.90
2022-08-07T00:38:31.183Z,0.90
2022-08-07T00:41:10.020Z,1.25
2022-08-07T00:44:01.889Z,0.90
2022-08-07T00:46:37.441Z,0.57
2022-08-07T00:49:24.946Z,1.00
2022-08-07T00:52:12.622Z,0.50
2022-08-07T00:54:47.510Z,0.60
2022-08-07T00:57:28.770Z,0.73
2022-08-07T01:00:08.795Z,0.93
2022-08-07T01:02:46.447Z,0.85
2022-08-07T01:05:20.240Z,0.47
2022-08-07T01:08:01.879Z,1.15
2022-08-07T01:10:36.153Z,0.52
2022-08-07T01:13:10.979Z,1.05
2022-08-07T01:16:05.094Z,0.60
2022-08-07T01:18:40.647Z,0.55
2022-08-07T01:21:22.646Z,0.52
2022-08-07T01:24:02.276Z,0.60
2022-08-07T01:26:37.025Z,0.60
2022-08-07T01:29:13.058Z,0.80
2022-08-07T01:31:48.102Z,0.65
2022-08-07T01:34:30.056Z,0.65
2022-08-07T01:37:12.392Z,0.67
2022-08-07T01:39:48.633Z,1.10
2022-08-07T01:42:39.262Z,1.25
2022-08-07T01:45:37.189Z,0.95
2022-08-07T01:48:30.931Z,0.77
2022-08-07T01:52:01.019Z,1.00
2022-08-07T01:54:19.177Z,0.93
2022-08-07T01:57:04.943Z,0.90
2022-08-07T01:59:45.974Z,1.20
2022-08-07T02:03:18.060Z,1.00
2022-08-07T02:05:47.804Z,1.25
2022-08-07T02:08:31.292Z,1.00
2022-08-07T02:11:10.441Z,1.08
2022-08-07T02:14:04.318Z,0.80
2022-08-07T02:16:41.650Z,1.40
2022-08-07T02:20:05.510Z,1.02
2022-08-07T02:22:12.093Z,0.90
2022-08-07T02:24:48.598Z,1.00
2022-08-07T02:27:25.337Z,0.50
2022-08-07T02:30:00.066Z,0.70
2022-08-07T02:33:00.667Z,0.77
2022-08-07T02:36:28.235Z,0.98
2022-08-07T02:38:38.775Z,0.80
2022-08-07T02:41:14.025Z,0.75
2022-08-07T02:44:00.395Z,1.15
2022-08-07T02:46:37.968Z,1.42
2022-08-07T02:49:55.980Z,1.23
2022-08-07T02:52:22.482Z,1.20
2022-08-07T02:55:27.736Z,1.52
2022-08-07T02:58:06.329Z,1.10
2022-08-07T03:00:48.498Z,0.80
2022-08-07T03:03:25.013Z,0.93
2022-08-07T03:06:04.531Z,1.00
2022-08-07T03:08:52.052Z,1.10
2022-08-07T03:11:28.108Z,1.35
2022-08-07T03:14:04.468Z,1.33
2022-08-07T03:16:43.005Z,0.90
2022-08-07T03:19:18.133Z,1.30
2022-08-07T03:21:54.832Z,0.88
2022-08-07T03:24:30.598Z,0.85
2022-08-07T03:27:09.462Z,0.75
2022-08-07T03:29:51.071Z,1.45
2022-08-07T03:32:34.423Z,0.93
2022-08-07T03:35:17.854Z,0.80
2022-08-07T03:37:56.639Z,1.00
2022-08-07T03:40:37.908Z,0.90
2022-08-07T03:43:21.181Z,1.00
2022-08-07T03:46:01.633Z,1.20
2022-08-07T03:49:02.238Z,1.30
2022-08-07T03:51:47.080Z,1.17
2022-08-07T03:54:35.624Z,1.30
2022-08-07T03:58:32.573Z,1.40
2022-08-07T04:00:15.630Z,1.02
2022-08-07T04:02:49.491Z,1.20
2022-08-07T04:05:42.477Z,0.98
2022-08-07T04:08:26.799Z,1.33
2022-08-07T04:12:24.219Z,1.20
2022-08-07T04:14:09.185Z,0.95
2022-08-07T04:16:58.609Z,1.40
2022-08-07T04:19:52.877Z,1.40
2022-08-07T04:22:30.554Z,1.20
2022-08-07T04:25:12.787Z,1.08
2022-08-07T04:27:59.326Z,1.17
2022-08-07T04:30:43.744Z,1.53
2022-08-07T04:33:36.977Z,0.93
2022-08-07T04:36:11.412Z,1.33
2022-08-07T04:38:50.698Z,1.00
2022-08-07T04:41:29.983Z,1.40
2022-08-07T04:47:03.810Z,1.27
2022-08-07T04:49:58.001Z,1.60
2022-08-07T04:52:51.404Z,1.17
2022-08-07T04:58:10.821Z,1.42
2022-08-07T04:58:47.680Z,1.17
2022-08-07T05:01:30.211Z,1.73
2022-08-07T05:04:12.335Z,1.25
2022-08-07T05:06:53.463Z,1.08
2022-08-07T05:09:46.181Z,1.00
2022-08-07T05:12:30.493Z,0.88
2022-08-07T05:15:21.622Z,0.88
2022-08-07T05:18:08.625Z,1.30
2022-08-07T05:20:50.235Z,0.90
2022-08-07T05:23:30.023Z,1.20
2022-08-07T05:26:13.607Z,1.00
2022-08-07T05:28:56.345Z,1.00
2022-08-07T05:31:38.638Z,0.90
2022-08-07T05:34:19.811Z,0.90
2022-08-07T05:37:01.052Z,0.90
2022-08-07T05:40:05.925Z,0.95
2022-08-07T05:42:40.828Z,0.90
2022-08-07T05:45:46.129Z,1.97
2022-08-07T05:48:17.854Z,1.25
2022-08-07T05:51:01.481Z,0.90
2022-08-07T05:54:11.955Z,1.08
2022-08-07T05:56:35.099Z,1.20
2022-08-07T05:59:12.675Z,0.95
2022-08-07T06:01:50.134Z,0.73
2022-08-07T06:04:30.081Z,1.00
2022-08-07T06:07:08.063Z,0.80
2022-08-07T06:10:04.605Z,0.90
2022-08-07T06:12:42.227Z,0.75
2022-08-07T06:15:19.672Z,0.50
2022-08-07T06:18:00.125Z,0.82
2022-08-07T06:20:51.116Z,0.90
2022-08-07T06:24:38.269Z,1.10
2022-08-07T06:26:31.751Z,0.80
2022-08-07T06:29:08.015Z,0.90
2022-08-07T06:31:49.674Z,0.85
2022-08-07T06:34:31.650Z,1.20
2022-08-07T06:37:08.119Z,0.83
2022-08-07T06:40:16.506Z,1.00
2022-08-07T06:42:42.891Z,0.80
2022-08-07T06:45:35.701Z,0.98
2022-08-07T06:48:12.447Z,0.93
2022-08-07T06:50:55.529Z,1.00
2022-08-07T06:55:27.974Z,0.65
2022-08-07T06:56:39.300Z,0.98
2022-08-07T07:00:14.351Z,0.90
2022-08-07T07:06:05.554Z,0.68
2022-08-07T07:08:29.180Z,0.65
2022-08-07T07:11:14.534Z,0.70
2022-08-07T07:14:05.051Z,0.80
2022-08-07T07:16:49.683Z,0.57
2022-08-07T07:19:55.407Z,0.70
2022-08-07T07:22:39.940Z,0.60
2022-08-07T07:26:32.325Z,0.60
2022-08-07T07:28:29.942Z,0.63
2022-08-07T07:31:21.571Z,0.40
2022-08-07T07:33:57.628Z,0.50
2022-08-07T07:36:32.884Z,0.40
2022-08-07T07:39:10.192Z,0.40
2022-08-07T07:42:02.085Z,0.60
2022-08-07T07:44:44.628Z,0.30
2022-08-07T07:47:24.318Z,0.73
2022-08-07T07:50:32.964Z,0.55
2022-08-07T07:52:53.957Z,0.40
2022-08-07T07:55:37.487Z,0.50
2022-08-07T07:58:23.220Z,0.40
2022-08-07T08:02:01.811Z,0.60
2022-08-07T08:04:10.121Z,0.50
2022-08-07T08:06:51.928Z,0.55
2022-08-07T08:09:29.117Z,0.50
2022-08-07T08:12:05.133Z,0.50
2022-08-07T08:14:43.679Z,0.80
2022-08-07T08:17:57.068Z,0.40
2022-08-07T08:20:23.231Z,0.35
2022-08-07T08:23:14.285Z,0.40
2022-08-07T08:26:13.154Z,0.40
2022-08-07T08:28:48.304Z,0.47
2022-08-07T08:31:58.587Z,0.57
2022-08-07T08:34:39.345Z,0.60
2022-08-07T08:37:59.163Z,0.30
2022-08-07T08:40:16.301Z,0.40
2022-08-07T08:42:59.475Z,0.35
2022-08-07T08:45:41.872Z,0.82
2022-08-07T08:48:32.552Z,0.50
2022-08-07T08:51:49.222Z,0.50
2022-08-07T08:54:13.127Z,0.30
2022-08-07T08:56:50.506Z,0.50
2022-08-07T08:59:30.109Z,0.65
2022-08-07T09:02:35.246Z,0.60
2022-08-07T09:05:36.854Z,0.67
2022-08-07T09:08:24.377Z,0.50
2022-08-07T09:11:14.008Z,0.57
2022-08-07T09:14:06.419Z,0.30
2022-08-07T09:16:48.837Z,0.73
2022-08-07T09:19:53.773Z,0.60
2022-08-07T09:24:31.146Z,0.80
2022-08-07T09:25:42.646Z,0.50
2022-08-07T09:30:04.693Z,0.50
2022-08-07T09:31:38.608Z,0.50
2022-08-07T09:34:16.998Z,0.70
2022-08-07T09:36:57.778Z,0.60
2022-08-07T09:39:55.249Z,0.68
2022-08-07T09:42:42.113Z,0.50
2022-08-07T09:47:50.785Z,0.80
2022-08-07T09:48:43.948Z,0.65
2022-08-07T09:52:10.322Z,0.70
2022-08-07T09:54:36.520Z,0.50
2022-08-07T09:57:36.774Z,0.85
2022-08-07T10:00:20.535Z,0.50
2022-08-07T10:04:05.371Z,0.50
2022-08-07T10:06:24.599Z,0.60
2022-08-07T10:09:34.331Z,0.40
2022-08-07T10:12:19.705Z,0.60
2022-08-07T10:15:15.464Z,0.50
2022-08-07T10:18:03.793Z,0.43
2022-08-07T10:20:44.408Z,0.90
2022-08-07T10:24:05.346Z,0.55
2022-08-07T10:26:40.458Z,0.40
2022-08-07T10:29:30.399Z,0.47
2022-08-07T10:32:36.738Z,0.52
2022-08-07T10:35:20.320Z,0.70
2022-08-07T10:38:20.824Z,0.50
2022-08-07T10:41:03.681Z,0.60
2022-08-07T10:43:39.289Z,0.82
2022-08-07T10:46:16.801Z,0.60
2022-08-07T10:49:01.218Z,0.50
2022-08-07T10:52:02.412Z,0.40
2022-08-07T10:54:39.117Z,0.50
2022-08-07T10:57:17.170Z,0.55
2022-08-07T11:00:36.447Z,0.77
2022-08-07T11:03:03.424Z,0.50
2022-08-07T11:05:51.236Z,0.60
2022-08-07T11:08:36.012Z,0.40
2022-08-07T11:11:16.336Z,0.60
2022-08-07T11:14:44.700Z,0.55
2022-08-07T11:16:55.753Z,0.60
2022-08-07T11:19:34.734Z,0.70
2022-08-07T11:22:27.437Z,0.70
2022-08-07T11:25:06.716Z,0.83
2022-08-07T11:28:01.714Z,0.50
2022-08-07T11:30:43.606Z,0.63
2022-08-07T11:33:53.580Z,0.70
2022-08-07T11:36:41.763Z,0.70
2022-08-07T11:39:19.976Z,0.63
2022-08-07T11:42:03.476Z,0.70
2022-08-07T11:44:51.995Z,0.60
2022-08-07T11:47:38.922Z,0.40
2022-08-07T11:50:36.084Z,0.50
2022-08-07T11:53:23.105Z,0.40
2022-08-07T11:56:27.251Z,0.70
2022-08-07T12:00:07.806Z,0.50
2022-08-07T12:02:17.917Z,0.50
2022-08-07T12:05:15.109Z,0.50
2022-08-07T12:08:03.973Z,0.63
2022-08-07T12:10:42.005Z,0.70
2022-08-07T12:13:35.524Z,0.70
2022-08-07T12:16:29.876Z,0.70
2022-08-07T12:19:23.063Z,0.60
2022-08-07T12:22:37.904Z,0.75
2022-08-07T12:26:00.920Z,0.63
2022-08-07T12:28:11.133Z,0.50
2022-08-07T12:30:51.402Z,0.70
2022-08-07T12:33:30.860Z,0.60
2022-08-07T12:36:33.049Z,0.60
2022-08-07T12:39:41.923Z,0.50
2022-08-07T12:42:03.493Z,0.60
2022-08-07T12:44:45.116Z,0.70
2022-08-07T12:47:26.805Z,0.60
2022-08-07T12:50:33.777Z,0.70
2022-08-07T12:53:17.908Z,0.70
2022-08-07T12:56:09.291Z,0.77
2022-08-07T12:58:53.162Z,0.60
2022-08-07T13:01:38.191Z,0.70
2022-08-07T13:04:37.254Z,0.50
2022-08-07T13:08:13.723Z,0.50
2022-08-07T13:10:52.124Z,0.50
2022-08-07T13:13:46.809Z,0.60
2022-08-07T13:16:29.670Z,0.50
2022-08-07T13:19:21.684Z,0.47
2022-08-07T13:22:12.771Z,0.40
2022-08-07T13:25:02.482Z,0.57
2022-08-07T13:28:12.829Z,0.60
2022-08-07T13:30:41.434Z,0.50
2022-08-07T13:34:31.778Z,0.50
2022-08-07T13:36:20.999Z,0.50
2022-08-07T13:39:11.113Z,0.60
2022-08-07T13:41:54.734Z,0.60
2022-08-07T13:44:34.313Z,0.60
2022-08-07T13:47:15.889Z,0.70
2022-08-07T13:50:36.632Z,0.50
2022-08-07T13:52:59.126Z,0.52
2022-08-07T13:55:37.072Z,0.40
2022-08-07T13:58:27.967Z,0.32
2022-08-07T14:01:12.796Z,0.40
2022-08-07T14:04:06.715Z,0.80
2022-08-07T14:06:45.182Z,0.40
2022-08-07T14:10:17.347Z,0.50
2022-08-07T14:12:27.644Z,0.60
2022-08-07T14:15:05.523Z,0.45
2022-08-07T14:18:24.492Z,0.43
2022-08-07T14:20:43.381Z,0.70
2022-08-07T14:23:31.462Z,1.20
2022-08-07T14:26:30.077Z,0.40
2022-08-07T14:30:02.937Z,0.40
2022-08-07T14:32:04.471Z,0.45
2022-08-07T14:34:45.456Z,0.60
2022-08-07T14:37:36.286Z,0.60
2022-08-07T14:40:16.566Z,0.60
2022-08-07T14:46:02.359Z,0.60
2022-08-07T14:48:40.199Z,0.50
2022-08-07T14:51:15.553Z,0.50
2022-08-07T14:54:09.791Z,0.40
2022-08-07T14:56:47.315Z,0.30
2022-08-07T15:02:32.090Z,0.40
2022-08-07T15:08:07.055Z,0.40
2022-08-07T15:10:58.708Z,0.30
2022-08-07T15:13:36.941Z,0.50
2022-08-07T15:16:19.771Z,0.45
2022-08-07T15:19:05.260Z,0.30
2022-08-07T15:21:58.540Z,0.70
2022-08-07T15:25:15.377Z,0.80
2022-08-07T15:30:16.680Z,0.50
2022-08-07T15:33:03.691Z,0.50
2022-08-07T15:36:02.224Z,0.60
2022-08-07T15:38:51.878Z,0.50
2022-08-07T15:42:44.418Z,0.70
2022-08-07T15:44:24.628Z,0.40
2022-08-07T15:47:03.678Z,0.45
2022-08-07T15:50:05.215Z,0.38
2022-08-07T15:52:41.242Z,0.50
2022-08-07T15:55:16.191Z,0.40
2022-08-07T15:58:00.247Z,0.60
2022-08-07T16:00:40.076Z,0.60
2022-08-07T16:03:21.436Z,0.52
2022-08-07T16:06:13.095Z,0.50
2022-08-07T16:08:53.062Z,0.40
2022-08-07T16:11:32.554Z,0.38
2022-08-07T16:14:19.263Z,0.38
2022-08-07T16:17:14.915Z,0.80
2022-08-07T16:20:00.141Z,0.50
2022-08-07T16:22:55.566Z,0.40
2022-08-07T16:25:56.133Z,0.40
2022-08-07T16:30:08.573Z,0.47
2022-08-07T16:31:57.737Z,0.50
2022-08-07T16:34:51.264Z,0.40
2022-08-07T16:38:05.621Z,0.40
2022-08-07T16:41:12.244Z,0.60
2022-08-07T16:44:02.749Z,0.50
2022-08-07T16:47:28.929Z,0.60
2022-08-07T16:50:39.363Z,0.68
2022-08-07T16:54:02.798Z,0.40
2022-08-07T16:56:58.603Z,0.40
2022-08-07T16:59:46.015Z,0.50
2022-08-07T17:02:53.251Z,0.50
2022-08-07T17:06:20.099Z,1.50
2022-08-07T17:09:10.934Z,0.70
2022-08-07T17:12:04.728Z,0.70
2022-08-07T17:14:56.164Z,0.60
2022-08-07T17:17:46.068Z,0.77
2022-08-07T17:20:29.950Z,1.30
2022-08-07T17:23:08.621Z,1.80
2022-08-07T17:25:53.813Z,0.70
2022-08-07T17:28:31.126Z,0.73
2022-08-07T17:31:16.559Z,0.50
2022-08-07T17:34:18.306Z,0.35
2022-08-07T17:36:57.964Z,0.60
2022-08-07T17:39:58.531Z,0.60
2022-08-07T17:42:58.515Z,0.75
2022-08-07T17:45:35.143Z,0.55
2022-08-07T17:48:14.916Z,0.60
2022-08-07T17:51:04.303Z,0.60
2022-08-07T17:54:01.700Z,0.70
2022-08-07T17:56:49.894Z,0.70
2022-08-07T17:59:35.987Z,0.95
2022-08-07T18:02:14.659Z,0.77
2022-08-07T18:04:57.307Z,0.60
2022-08-07T18:07:43.913Z,1.30
2022-08-07T18:10:29.225Z,0.95
2022-08-07T18:13:23.082Z,1.05
2022-08-07T18:16:09.389Z,1.00
2022-08-07T18:21:03.993Z,1.20
2022-08-07T18:22:02.432Z,1.13
2022-08-07T18:24:40.575Z,1.02
2022-08-07T18:27:52.232Z,0.98
2022-08-07T18:30:30.778Z,0.93
2022-08-07T18:33:28.951Z,1.00
2022-08-07T18:36:09.633Z,1.03
2022-08-07T18:40:05.219Z,1.40
2022-08-07T18:42:00.816Z,1.15
2022-08-07T18:45:44.277Z,1.10
2022-08-07T18:47:45.253Z,0.98
2022-08-07T18:50:51.212Z,0.60
2022-08-07T18:53:36.730Z,1.33
2022-08-07T18:56:17.260Z,0.63
2022-08-07T18:59:08.325Z,0.88
2022-08-07T19:02:18.230Z,1.00
2022-08-07T19:05:15.022Z,1.23
2022-08-07T19:07:58.662Z,1.25
2022-08-07T19:10:51.231Z,1.25
2022-08-07T19:13:32.331Z,1.20
2022-08-07T19:16:43.640Z,0.93
2022-08-07T19:19:00.725Z,1.20
2022-08-07T19:21:53.379Z,1.13
2022-08-07T19:24:43.492Z,1.00
2022-08-07T19:28:57.638Z,1.00
2022-08-07T19:31:06.291Z,0.80
2022-08-07T19:33:17.834Z,1.13
2022-08-07T19:35:56.853Z,0.80
2022-08-07T19:38:33.404Z,0.85
2022-08-07T19:41:12.761Z,0.93
2022-08-07T19:43:59.935Z,0.80
2022-08-07T19:46:55.840Z,1.00
2022-08-07T19:49:58.402Z,0.95
2022-08-07T19:52:29.974Z,0.80
2022-08-07T19:55:11.067Z,1.42
2022-08-07T19:58:00.141Z,0.90
2022-08-07T20:00:54.152Z,0.88
2022-08-07T20:03:36.264Z,0.60
2022-08-07T20:06:15.495Z,0.90
2022-08-07T20:09:07.674Z,1.65
2022-08-07T20:12:34.764Z,2.45
2022-08-07T20:14:58.585Z,2.43
2022-08-07T20:17:38.659Z,1.55
2022-08-07T20:20:21.867Z,1.35
2022-08-07T20:23:23.095Z,1.30
2022-08-07T20:25:58.767Z,1.13
2022-08-07T20:28:35.286Z,1.75
2022-08-07T20:31:21.340Z,1.20
2022-08-07T20:33:58.737Z,1.27
2022-08-07T20:36:36.325Z,0.95
2022-08-07T20:39:31.099Z,1.63
2022-08-07T20:42:06.478Z,1.40
2022-08-07T20:44:49.511Z,1.60
2022-08-07T20:47:57.487Z,1.70
2022-08-07T20:50:23.833Z,2.40
2022-08-07T20:53:03.038Z,2.50
2022-08-07T20:55:39.389Z,2.10
2022-08-07T20:58:19.590Z,2.00
2022-08-07T21:01:05.995Z,1.67
2022-08-07T21:04:19.892Z,2.05
2022-08-07T21:06:55.000Z,1.90
2022-08-07T21:09:29.609Z,1.98
2022-08-07T21:12:30.746Z,1.90
2022-08-07T21:15:08.947Z,1.38
2022-08-07T21:18:03.076Z,1.65
2022-08-07T21:20:56.086Z,1.70
2022-08-07T21:23:50.672Z,1.55
2022-08-07T21:26:31.315Z,1.70
2022-08-07T21:29:18.485Z,1.60
2022-08-07T21:32:42.730Z,1.33
2022-08-07T21:34:58.880Z,1.50
2022-08-07T21:37:58.324Z,1.30
2022-08-07T21:40:40.296Z,1.13
2022-08-07T21:43:23.129Z,1.60
2022-08-07T21:46:24.995Z,1.50
2022-08-07T21:49:14.465Z,1.48
2022-08-07T21:52:00.950Z,1.60
2022-08-07T21:54:46.002Z,1.05
2022-08-07T21:57:31.340Z,1.10
2022-08-07T22:00:22.834Z,1.17
2022-08-07T22:03:17.074Z,1.17
2022-08-07T22:05:55.952Z,1.35
2022-08-07T22:08:31.601Z,1.38
2022-08-07T22:13:51.363Z,1.73
2022-08-07T22:16:43.194Z,1.30
2022-08-07T22:19:20.081Z,1.27
2022-08-07T22:22:17.804Z,1.10
2022-08-07T22:25:02.935Z,1.25
2022-08-07T22:28:08.171Z,0.97
2022-08-07T22:30:34.756Z,1.35
2022-08-07T22:33:10.900Z,1.55
2022-08-07T22:35:47.455Z,1.40
2022-08-07T22:38:32.185Z,1.25
2022-08-07T22:41:08.973Z,1.27
2022-08-07T22:43:45.551Z,1.42
2022-08-07T22:47:03.860Z,1.30
2022-08-07T22:49:54.541Z,1.33
2022-08-07T22:52:48.476Z,1.17
2022-08-07T22:55:29.716Z,1.55
2022-08-07T22:58:34.269Z,1.65
2022-08-07T23:01:30.479Z,1.00
2022-08-07T23:04:29.945Z,1.40
2022-08-07T23:07:28.415Z,1.35
2022-08-07T23:10:37.463Z,1.50
2022-08-07T23:13:20.808Z,1.70
2022-08-07T23:16:48.511Z,0.90
2022-08-07T23:19:47.989Z,1.50
2022-08-07T23:22:25.738Z,0.90
2022-08-07T23:25:12.214Z,1.50
2022-08-07T23:28:22.717Z,0.90
2022-08-07T23:31:06.661Z,1.02
2022-08-07T23:34:36.004Z,1.08
2022-08-07T23:37:19.399Z,1.10
2022-08-07T23:40:02.447Z,0.90
2022-08-07T23:42:36.756Z,1.38
2022-08-07T23:48:26.792Z,1.00
2022-08-07T23:51:02.608Z,1.30
2022-08-07T23:53:49.466Z,1.30
2022-08-07T23:56:31.306Z,0.98
